Time;durP1;ratioP1;P1;durP2;ratioP2;P2;SDS_P1;SDS_P2;PMS_P1;PMS_P2;Temp;Humidity;BMP_temperature;BMP_pressure;BME280_temperature;BME280_humidity;BME280_pressure;Samples;Min_cycle;Max_cycle;Signal;HPM_P1;HPM_P2
2022/03/22 00:00:15;;;;;;;11.50;5.50;;;;;;;;;;6295696;22;20165;-88
2022/03/22 00:03:24;;;;;;;14.80;5.50;;;;;;;;;;6313094;22;20280;-86
2022/03/22 00:06:31;;;;;;;13.67;5.97;;;;;;;;;;6313911;22;20165;-87
2022/03/22 00:09:36;;;;;;;14.50;6.60;;;;;;;;;;6312845;22;20234;-88
2022/03/22 00:12:44;;;;;;;14.57;6.00;;;;;;;;;;6295043;22;20208;-87
2022/03/22 00:15:57;;;;;;;13.93;6.17;;;;;;;;;;6313421;22;20215;-86
2022/03/22 00:19:03;;;;;;;15.47;6.17;;;;;;;;;;6296158;22;20169;-87
2022/03/22 00:22:11;;;;;;;11.67;5.83;;;;;;;;;;6314295;22;20165;-86
2022/03/22 00:25:17;;;;;;;15.27;6.00;;;;;;;;;;6296244;22;20623;-87
2022/03/22 00:28:22;;;;;;;15.30;6.30;;;;;;;;;;6312814;22;20176;-87
2022/03/22 00:31:28;;;;;;;14.20;6.20;;;;;;;;;;6317190;22;20173;-87
2022/03/22 00:34:33;;;;;;;17.53;6.27;;;;;;;;;;6300110;22;20172;-86
2022/03/22 00:37:42;;;;;;;14.70;5.60;;;;;;;;;;6317163;22;20234;-84
2022/03/22 00:40:47;;;;;;;15.00;6.20;;;;;;;;;;6299536;22;20169;-88
2022/03/22 00:43:52;;;;;;;19.70;6.20;;;;;;;;;;6318202;22;20251;-86
2022/03/22 00:46:57;;;;;;;14.90;5.80;;;;;;;;;;6317632;22;20620;-88
2022/03/22 00:50:01;;;;;;;12.37;5.23;;;;;;;;;;6300112;22;20192;-89
2022/03/22 00:53:08;;;;;;;15.27;5.80;;;;;;;;;;6318728;22;20192;-87
2022/03/22 00:56:13;;;;;;;17.40;6.33;;;;;;;;;;6318190;22;20566;-87
2022/03/22 01:02:42;;;;;;;14.07;5.83;;;;;;;;;;6318256;22;20181;-87
2022/03/22 01:05:47;;;;;;;14.57;6.40;;;;;;;;;;6300875;22;20229;-87
2022/03/22 01:08:54;;;;;;;12.37;6.10;;;;;;;;;;6317651;22;20247;-86
2022/03/22 01:11:59;;;;;;;17.17;5.63;;;;;;;;;;6317407;22;20253;-88
2022/03/22 01:15:03;;;;;;;9.27;4.80;;;;;;;;;;6319205;22;20588;-87
2022/03/22 01:18:09;;;;;;;13.70;5.30;;;;;;;;;;6317540;22;20195;-86
2022/03/22 01:21:14;;;;;;;14.40;5.97;;;;;;;;;;6318151;22;20677;-86
2022/03/22 01:24:20;;;;;;;11.80;5.53;;;;;;;;;;6319044;22;20247;-85
2022/03/22 01:27:26;;;;;;;10.80;5.43;;;;;;;;;;6318330;22;20173;-86
2022/03/22 01:30:32;;;;;;;10.97;5.10;;;;;;;;;;6319303;22;20219;-87
2022/03/22 01:33:37;;;;;;;12.27;4.80;;;;;;;;;;6317794;22;20258;-89
2022/03/22 01:36:42;;;;;;;12.87;5.23;;;;;;;;;;6316115;22;20204;-90
2022/03/22 01:39:48;;;;;;;13.13;5.70;;;;;;;;;;6317479;22;20272;-86
2022/03/22 01:42:54;;;;;;;9.87;5.13;;;;;;;;;;6314385;22;20169;-88
2022/03/22 01:45:59;;;;;;;12.77;6.03;;;;;;;;;;6295906;22;20179;-87
2022/03/22 01:49:05;;;;;;;13.43;5.33;;;;;;;;;;6297143;22;20173;-89
2022/03/22 01:52:14;;;;;;;11.87;5.70;;;;;;;;;;6314342;22;20291;-87
2022/03/22 01:55:23;;;;;;;16.67;5.83;;;;;;;;;;6316002;22;20182;-87
2022/03/22 01:58:28;;;;;;;13.77;5.37;;;;;;;;;;6314660;22;20169;-87
2022/03/22 02:08:34;;;;;;;11.63;5.00;;;;;;;;;;6314805;22;20214;-88
2022/03/22 02:11:41;;;;;;;11.80;5.53;;;;;;;;;;6298113;22;20165;-88
2022/03/22 02:14:46;;;;;;;14.27;5.40;;;;;;;;;;6314686;22;20250;-89
2022/03/22 02:17:51;;;;;;;13.50;5.17;;;;;;;;;;6314356;22;20439;-88
2022/03/22 02:20:57;;;;;;;12.60;5.43;;;;;;;;;;6314546;22;20169;-86
2022/03/22 02:24:05;;;;;;;16.07;4.97;;;;;;;;;;6316172;22;20191;-89
2022/03/22 02:27:10;;;;;;;13.43;5.90;;;;;;;;;;6316349;22;20181;-86
2022/03/22 02:30:15;;;;;;;14.17;5.63;;;;;;;;;;6314810;22;20183;-87
2022/03/22 02:33:21;;;;;;;12.57;5.67;;;;;;;;;;6313910;22;20189;-88
2022/03/22 02:36:27;;;;;;;14.00;5.87;;;;;;;;;;6314858;22;20169;-87
2022/03/22 02:39:34;;;;;;;16.33;5.80;;;;;;;;;;6297982;22;20165;-87
2022/03/22 02:42:39;;;;;;;17.23;5.93;;;;;;;;;;6316855;22;20164;-86
2022/03/22 02:45:44;;;;;;;12.53;5.83;;;;;;;;;;6316378;22;20604;-86
2022/03/22 02:48:49;;;;;;;13.13;5.87;;;;;;;;;;6298053;22;20169;-88
2022/03/22 02:51:55;;;;;;;13.80;5.57;;;;;;;;;;6296156;22;20173;-87
2022/03/22 02:55:01;;;;;;;13.17;5.20;;;;;;;;;;6314463;22;20637;-85
2022/03/22 02:58:07;;;;;;;15.00;6.13;;;;;;;;;;6316451;22;20185;-87
2022/03/22 03:01:11;;;;;;;11.73;5.40;;;;;;;;;;6316241;22;20632;-87
2022/03/22 03:04:16;;;;;;;14.10;6.03;;;;;;;;;;6315690;22;20206;-85
2022/03/22 03:07:21;;;;;;;12.53;5.30;;;;;;;;;;6313251;22;20156;-86
2022/03/22 03:10:28;;;;;;;13.53;5.97;;;;;;;;;;6312581;22;20295;-87
2022/03/22 03:16:52;;;;;;;14.30;5.70;;;;;;;;;;6295148;22;20199;-87
2022/03/22 03:19:57;;;;;;;14.67;5.70;;;;;;;;;;6312356;22;20183;-88
2022/03/22 03:23:03;;;;;;;16.50;6.43;;;;;;;;;;6313169;22;20181;-87
2022/03/22 03:26:09;;;;;;;13.20;5.57;;;;;;;;;;6312995;22;20201;-87
2022/03/22 03:29:14;;;;;;;12.97;6.03;;;;;;;;;;6314981;22;20519;-88
2022/03/22 03:32:20;;;;;;;12.47;6.03;;;;;;;;;;6315549;22;20575;-86
2022/03/22 03:35:25;;;;;;;12.17;5.90;;;;;;;;;;6313866;22;20546;-87
2022/03/22 03:38:30;;;;;;;13.50;5.67;;;;;;;;;;6312436;22;20335;-85
2022/03/22 03:41:56;;;;;;;15.73;6.30;;;;;;;;;;6313767;22;20530;-86
2022/03/22 03:48:24;;;;;;;18.23;6.37;;;;;;;;;;6314231;22;20229;-89
2022/03/22 03:51:29;;;;;;;17.30;7.00;;;;;;;;;;6313452;22;20296;-87
2022/03/22 03:54:35;;;;;;;12.97;5.70;;;;;;;;;;6314080;22;20225;-88
2022/03/22 03:57:41;;;;;;;24.63;5.97;;;;;;;;;;6295344;22;20169;-87
2022/03/22 04:00:47;;;;;;;14.63;6.00;;;;;;;;;;6311918;22;20172;-88
2022/03/22 04:03:52;;;;;;;14.03;5.80;;;;;;;;;;6313874;22;20264;-87
2022/03/22 04:06:57;;;;;;;17.73;6.67;;;;;;;;;;6313898;22;20164;-86
2022/03/22 04:10:02;;;;;;;13.27;6.10;;;;;;;;;;6313009;22;20621;-86
2022/03/22 04:13:09;;;;;;;20.87;5.97;;;;;;;;;;6313429;22;20192;-85
2022/03/22 04:16:13;;;;;;;9.60;5.00;;;;;;;;;;6313143;22;20284;-86
2022/03/22 04:19:18;;;;;;;12.83;6.00;;;;;;;;;;6294749;22;20625;-86
2022/03/22 04:22:23;;;;;;;12.50;6.23;;;;;;;;;;6313853;22;20181;-87
2022/03/22 04:25:29;;;;;;;12.70;5.57;;;;;;;;;;6293813;22;20173;-88
2022/03/22 04:35:27;;;;;;;16.87;6.37;;;;;;;;;;6313314;22;20197;-87
2022/03/22 04:38:33;;;;;;;15.67;5.50;;;;;;;;;;6297313;22;20170;-87
2022/03/22 04:41:38;;;;;;;12.43;5.57;;;;;;;;;;6316389;22;20173;-86
2022/03/22 04:44:45;;;;;;;14.03;6.00;;;;;;;;;;6317370;22;20247;-87
2022/03/22 04:47:49;;;;;;;15.67;7.77;;;;;;;;;;6315364;22;20251;-86
2022/03/22 04:56:43;;;;;;;15.40;6.37;;;;;;;;;;6316259;22;20205;-86
2022/03/22 04:57:42;;;;;;;16.47;6.90;;;;;;;;;;6315035;22;20227;-86
2022/03/22 05:00:52;;;;;;;13.20;5.73;;;;;;;;;;6314552;22;20169;-87
2022/03/22 05:03:57;;;;;;;14.10;6.77;;;;;;;;;;6297773;22;20169;-87
2022/03/22 05:07:02;;;;;;;13.33;6.30;;;;;;;;;;6315946;22;20636;-86
2022/03/22 05:10:08;;;;;;;15.50;6.03;;;;;;;;;;6316571;22;20192;-85
2022/03/22 05:13:13;;;;;;;14.37;6.67;;;;;;;;;;6317281;22;20624;-87
2022/03/22 05:16:21;;;;;;;15.37;6.57;;;;;;;;;;6299218;22;20169;-83
2022/03/22 05:19:27;;;;;;;18.63;7.40;;;;;;;;;;6318987;22;20173;-89
2022/03/22 05:22:32;;;;;;;13.37;6.27;;;;;;;;;;6318148;22;20172;-86
2022/03/22 05:25:38;;;;;;;15.83;6.50;;;;;;;;;;6301638;22;20149;-87
2022/03/22 05:28:43;;;;;;;14.70;6.50;;;;;;;;;;6321133;22;20169;-87
2022/03/22 05:31:49;;;;;;;15.07;6.53;;;;;;;;;;6318582;22;20582;-87
2022/03/22 05:34:54;;;;;;;16.87;6.47;;;;;;;;;;6300717;22;20189;-86
2022/03/22 05:37:59;;;;;;;17.47;7.20;;;;;;;;;;6318516;22;20220;-85
2022/03/22 05:41:06;;;;;;;17.77;7.20;;;;;;;;;;6318840;22;20624;-86
2022/03/22 05:44:13;;;;;;;19.53;6.83;;;;;;;;;;6318775;22;20499;-85
2022/03/22 05:47:19;;;;;;;21.07;7.03;;;;;;;;;;6301091;22;20539;-86
2022/03/22 05:50:25;;;;;;;16.03;6.47;;;;;;;;;;6316699;22;21195;-85
2022/03/22 05:53:30;;;;;;;15.10;6.13;;;;;;;;;;6318691;22;20197;-87
2022/03/22 05:56:35;;;;;;;13.60;6.70;;;;;;;;;;6298472;22;20172;-87
2022/03/22 05:59:40;;;;;;;23.53;6.70;;;;;;;;;;6298047;22;20165;-86
2022/03/22 06:02:46;;;;;;;19.37;6.40;;;;;;;;;;6317398;22;20177;-87
2022/03/22 06:05:52;;;;;;;17.90;7.17;;;;;;;;;;6317552;22;20164;-87
2022/03/22 06:08:58;;;;;;;20.67;7.47;;;;;;;;;;6299804;22;20169;-86
2022/03/22 06:12:06;;;;;;;17.77;7.13;;;;;;;;;;6302186;22;20181;-87
2022/03/22 06:15:17;;;;;;;24.43;8.90;;;;;;;;;;6301722;22;20239;-87
2022/03/22 06:18:25;;;;;;;18.80;7.50;;;;;;;;;;6319145;22;20173;-88
2022/03/22 06:21:30;;;;;;;17.27;6.87;;;;;;;;;;6318531;22;20240;-87
2022/03/22 06:24:35;;;;;;;18.90;7.87;;;;;;;;;;6318315;22;20506;-85
2022/03/22 06:27:40;;;;;;;15.97;7.57;;;;;;;;;;6318534;22;20510;-84
2022/03/22 06:30:46;;;;;;;15.90;7.10;;;;;;;;;;6319897;22;20244;-86
2022/03/22 06:33:52;;;;;;;22.80;7.27;;;;;;;;;;6301972;22;20188;-85
2022/03/22 06:36:58;;;;;;;16.93;7.30;;;;;;;;;;6321253;22;20241;-87
2022/03/22 06:40:04;;;;;;;15.77;7.07;;;;;;;;;;6318035;22;20181;-87
2022/03/22 06:43:10;;;;;;;18.83;7.70;;;;;;;;;;6318201;22;20204;-86
2022/03/22 06:46:15;;;;;;;20.60;7.17;;;;;;;;;;6300899;22;20176;-86
2022/03/22 06:49:23;;;;;;;16.00;7.67;;;;;;;;;;6317841;22;20192;-87
2022/03/22 06:52:28;;;;;;;18.63;7.27;;;;;;;;;;6300541;22;20157;-88
2022/03/22 06:55:34;;;;;;;16.43;7.03;;;;;;;;;;6317871;22;20170;-88
2022/03/22 06:58:39;;;;;;;18.27;7.27;;;;;;;;;;6319700;22;20166;-87
2022/03/22 07:01:44;;;;;;;16.97;6.33;;;;;;;;;;6317372;22;20271;-86
2022/03/22 07:04:51;;;;;;;25.87;8.00;;;;;;;;;;6317959;22;20168;-86
2022/03/22 07:07:57;;;;;;;26.97;7.83;;;;;;;;;;6316979;22;20284;-85
2022/03/22 07:14:25;;;;;;;16.53;7.00;;;;;;;;;;6318454;22;20232;-86
2022/03/22 07:17:30;;;;;;;14.57;6.67;;;;;;;;;;6318094;22;20173;-86
2022/03/22 07:20:37;;;;;;;14.40;6.67;;;;;;;;;;6317741;22;20196;-87
2022/03/22 07:23:42;;;;;;;17.13;7.27;;;;;;;;;;6317264;22;20678;-88
2022/03/22 07:26:47;;;;;;;15.20;6.97;;;;;;;;;;6298722;22;20165;-86
2022/03/22 07:29:53;;;;;;;19.27;6.90;;;;;;;;;;6318263;22;20620;-86
2022/03/22 07:32:58;;;;;;;24.20;7.50;;;;;;;;;;6317759;22;20169;-86
2022/03/22 07:36:07;;;;;;;26.10;9.63;;;;;;;;;;6318672;22;20176;-84
2022/03/22 07:39:13;;;;;;;23.30;7.73;;;;;;;;;;6319018;22;20174;-87
2022/03/22 07:42:18;;;;;;;22.00;7.63;;;;;;;;;;6317763;22;20219;-85
2022/03/22 07:45:22;;;;;;;18.60;7.63;;;;;;;;;;6315168;22;20270;-84
2022/03/22 07:48:27;;;;;;;29.57;11.63;;;;;;;;;;6316997;22;20250;-86
2022/03/22 07:54:56;;;;;;;18.13;7.20;;;;;;;;;;6317589;22;20215;-87
2022/03/22 07:58:03;;;;;;;21.23;8.37;;;;;;;;;;6298572;22;20173;-85
2022/03/22 08:01:08;;;;;;;18.97;7.27;;;;;;;;;;6298902;22;20168;-86
2022/03/22 08:04:13;;;;;;;18.27;7.60;;;;;;;;;;6319104;22;20165;-86
2022/03/22 08:07:19;;;;;;;18.27;8.57;;;;;;;;;;6317705;22;20169;-85
2022/03/22 08:10:25;;;;;;;16.47;7.50;;;;;;;;;;6318413;22;20173;-86
2022/03/22 08:13:30;;;;;;;13.07;6.60;;;;;;;;;;6316682;22;20172;-87
2022/03/22 08:17:02;;;;;;;17.37;6.13;;;;;;;;;;6316849;22;20169;-86
2022/03/22 08:20:08;;;;;;;13.03;5.93;;;;;;;;;;6299564;22;20169;-87
2022/03/22 08:23:17;;;;;;;14.53;6.00;;;;;;;;;;6319225;22;20169;-87
2022/03/22 08:26:22;;;;;;;15.20;6.00;;;;;;;;;;6316766;22;20292;-87
2022/03/22 08:29:27;;;;;;;14.37;6.10;;;;;;;;;;6297400;22;20203;-86
2022/03/22 08:32:32;;;;;;;18.43;6.30;;;;;;;;;;6299806;22;20168;-85
2022/03/22 08:35:38;;;;;;;11.43;5.60;;;;;;;;;;6302486;22;20196;-87
2022/03/22 08:38:46;;;;;;;15.10;6.30;;;;;;;;;;6300589;22;20276;-88
2022/03/22 08:41:52;;;;;;;10.30;5.60;;;;;;;;;;6317585;22;20165;-89
2022/03/22 08:44:57;;;;;;;13.55;5.40;;;;;;;;;;6299357;22;20612;-87
2022/03/22 08:48:09;;;;;;;13.05;5.68;;;;;;;;;;6297436;22;20181;-86
2022/03/22 08:51:16;;;;;;;30.42;6.03;;;;;;;;;;6320587;22;20196;-88
2022/03/22 08:54:22;;;;;;;13.77;5.65;;;;;;;;;;6321838;22;20274;-88
2022/03/22 08:57:28;;;;;;;14.45;5.50;;;;;;;;;;6304650;22;20208;-85
2022/03/22 09:00:34;;;;;;;9.88;5.18;;;;;;;;;;6303841;22;20165;-87
2022/03/22 09:03:39;;;;;;;11.20;5.22;;;;;;;;;;6320650;22;20220;-86
2022/03/22 09:06:43;;;;;;;13.40;5.90;;;;;;;;;;6322160;22;20173;-86
2022/03/22 09:09:50;;;;;;;12.25;6.13;;;;;;;;;;6319380;22;20551;-87
2022/03/22 09:12:55;;;;;;;10.27;5.03;;;;;;;;;;6321960;22;20172;-86
2022/03/22 09:19:36;;;;;;;17.02;5.38;;;;;;;;;;6301015;22;20160;-88
2022/03/22 09:22:42;;;;;;;9.00;5.10;;;;;;;;;;6319696;22;20160;-89
2022/03/22 09:25:50;;;;;;;15.65;5.18;;;;;;;;;;6300744;22;20659;-89
2022/03/22 09:28:55;;;;;;;8.05;4.90;;;;;;;;;;6321442;22;20614;-89
2022/03/22 09:32:00;;;;;;;12.82;5.28;;;;;;;;;;6304363;22;20168;-89
2022/03/22 09:35:07;;;;;;;14.63;5.05;;;;;;;;;;6302225;22;20170;-88
2022/03/22 09:38:12;;;;;;;8.55;5.15;;;;;;;;;;6322450;22;20169;-89
2022/03/22 09:41:19;;;;;;;7.47;4.93;;;;;;;;;;6304147;22;20173;-92
2022/03/22 09:44:24;;;;;;;10.55;5.22;;;;;;;;;;6303728;22;20256;-89
2022/03/22 09:47:29;;;;;;;12.68;4.68;;;;;;;;;;6304706;22;20173;-88
2022/03/22 09:53:58;;;;;;;10.50;5.15;;;;;;;;;;6321478;22;20165;-88
2022/03/22 09:57:05;;;;;;;6.55;4.30;;;;;;;;;;6303846;22;20165;-89
2022/03/22 10:00:14;;;;;;;9.32;4.68;;;;;;;;;;6303298;22;20165;-91
2022/03/22 10:03:20;;;;;;;7.97;4.55;;;;;;;;;;6321875;22;20168;-89
2022/03/22 10:06:25;;;;;;;9.13;4.75;;;;;;;;;;6302723;22;20160;-90
2022/03/22 10:09:31;;;;;;;9.35;3.83;;;;;;;;;;6318815;22;20189;-89
2022/03/22 10:12:38;;;;;;;7.82;3.80;;;;;;;;;;6319194;22;20230;-89
2022/03/22 10:15:43;;;;;;;5.68;3.40;;;;;;;;;;6319579;22;20169;-89
2022/03/22 10:18:48;;;;;;;5.45;3.22;;;;;;;;;;6319934;22;20259;-89
2022/03/22 10:21:54;;;;;;;5.53;2.67;;;;;;;;;;6320759;22;20184;-89
2022/03/22 10:25:00;;;;;;;6.43;2.50;;;;;;;;;;6300959;22;20189;-90
2022/03/22 10:28:20;;;;;;;4.45;2.33;;;;;;;;;;6319495;22;20210;-87
2022/03/22 10:31:34;;;;;;;6.70;2.92;;;;;;;;;;6303499;22;20212;-88
2022/03/22 10:34:39;;;;;;;5.85;2.75;;;;;;;;;;6301826;22;20199;-88
2022/03/22 10:37:46;;;;;;;4.43;2.55;;;;;;;;;;6320044;22;20164;-90
2022/03/22 10:40:51;;;;;;;3.85;2.40;;;;;;;;;;6321426;22;20244;-88
2022/03/22 10:44:06;;;;;;;5.68;2.50;;;;;;;;;;6317633;22;20169;-89
2022/03/22 10:47:11;;;;;;;5.85;2.35;;;;;;;;;;6319641;22;20166;-89
2022/03/22 10:50:16;;;;;;;6.78;2.50;;;;;;;;;;6301347;22;20189;-87
2022/03/22 10:53:22;;;;;;;4.45;2.58;;;;;;;;;;6319465;22;20169;-89
2022/03/22 10:56:27;;;;;;;6.35;2.05;;;;;;;;;;6319842;22;20188;-90
2022/03/22 10:59:34;;;;;;;6.95;2.20;;;;;;;;;;6321211;22;20154;-90
2022/03/22 11:02:41;;;;;;;5.75;2.38;;;;;;;;;;6302662;22;20697;-90
2022/03/22 11:05:48;;;;;;;4.63;2.25;;;;;;;;;;6302834;22;20194;-90
2022/03/22 11:08:55;;;;;;;3.88;1.90;;;;;;;;;;6301819;22;20169;-90
2022/03/22 11:12:03;;;;;;;2.83;1.75;;;;;;;;;;6301159;22;20172;-88
2022/03/22 11:15:10;;;;;;;5.50;2.35;;;;;;;;;;6320551;22;20543;-87
2022/03/22 11:18:18;;;;;;;4.50;1.85;;;;;;;;;;6300703;22;20169;-88
2022/03/22 11:21:23;;;;;;;4.78;2.08;;;;;;;;;;6301080;22;20280;-89
2022/03/22 11:24:30;;;;;;;3.80;2.00;;;;;;;;;;6320300;22;20192;-87
2022/03/22 11:27:35;;;;;;;3.45;2.13;;;;;;;;;;6319980;22;20498;-89
2022/03/22 11:30:43;;;;;;;7.63;2.63;;;;;;;;;;6302001;22;20169;-87
2022/03/22 11:37:40;;;;;;;4.32;2.10;;;;;;;;;;6300284;22;20192;-89
2022/03/22 11:44:12;;;;;;;2.85;2.00;;;;;;;;;;6318710;22;20196;-89
2022/03/22 11:47:19;;;;;;;5.47;2.10;;;;;;;;;;6319459;22;20240;-89
2022/03/22 11:50:25;;;;;;;3.55;2.08;;;;;;;;;;6300965;22;20199;-86
2022/03/22 11:53:30;;;;;;;4.63;2.05;;;;;;;;;;6299692;22;20168;-87
2022/03/22 11:56:46;;;;;;;2.92;1.73;;;;;;;;;;6318141;22;20165;-90
2022/03/22 11:59:52;;;;;;;3.97;1.80;;;;;;;;;;6318973;22;20165;-91
2022/03/22 12:02:58;;;;;;;4.32;2.13;;;;;;;;;;6304110;22;20283;-88
2022/03/22 12:06:10;;;;;;;5.93;2.10;;;;;;;;;;6301837;22;20188;-90
2022/03/22 12:09:15;;;;;;;5.85;3.30;;;;;;;;;;6322357;22;20491;-87
2022/03/22 12:12:20;;;;;;;4.28;1.95;;;;;;;;;;6319561;22;20168;-89
2022/03/22 12:15:25;;;;;;;9.48;1.75;;;;;;;;;;6318777;22;20200;-89
2022/03/22 12:18:31;;;;;;;2.50;1.58;;;;;;;;;;6318376;22;20789;-91
2022/03/22 12:21:36;;;;;;;5.05;1.80;;;;;;;;;;6320865;22;20490;-89
2022/03/22 12:24:42;;;;;;;2.83;1.73;;;;;;;;;;6302594;22;20877;-88
2022/03/22 12:27:57;;;;;;;5.35;1.75;;;;;;;;;;6321930;22;20164;-87
2022/03/22 12:31:02;;;;;;;2.05;1.50;;;;;;;;;;6302651;22;20176;-87
2022/03/22 12:34:10;;;;;;;2.88;1.48;;;;;;;;;;6302704;22;20209;-89
2022/03/22 12:37:15;;;;;;;2.38;1.50;;;;;;;;;;6303839;22;20228;-88
2022/03/22 12:40:22;;;;;;;5.32;1.60;;;;;;;;;;6302046;22;20167;-90
2022/03/22 12:43:29;;;;;;;2.28;1.50;;;;;;;;;;6321242;22;20248;-89
2022/03/22 12:46:35;;;;;;;3.17;1.73;;;;;;;;;;6301276;22;20211;-88
2022/03/22 12:49:42;;;;;;;6.15;1.55;;;;;;;;;;6299646;22;20273;-88
2022/03/22 12:52:48;;;;;;;5.63;1.60;;;;;;;;;;6317690;22;20168;-89
2022/03/22 12:55:53;;;;;;;2.15;1.50;;;;;;;;;;6316174;22;20164;-90
2022/03/22 12:59:00;;;;;;;2.95;1.60;;;;;;;;;;6317324;22;20165;-88
2022/03/22 13:02:06;;;;;;;2.40;1.50;;;;;;;;;;6298411;22;20274;-88
2022/03/22 13:05:13;;;;;;;9.68;2.20;;;;;;;;;;6317070;22;20188;-88
2022/03/22 13:08:19;;;;;;;4.32;1.58;;;;;;;;;;6297269;22;20169;-88
2022/03/22 13:11:26;;;;;;;3.13;1.25;;;;;;;;;;6318870;22;20165;-87
2022/03/22 13:18:03;;;;;;;7.05;2.08;;;;;;;;;;6315605;22;20246;-90
2022/03/22 13:21:13;;;;;;;6.53;2.10;;;;;;;;;;6318546;22;20208;-88
2022/03/22 13:24:22;;;;;;;7.22;1.83;;;;;;;;;;6316335;22;20183;-89
2022/03/22 13:27:28;;;;;;;2.90;1.63;;;;;;;;;;6297768;22;20169;-91
2022/03/22 13:30:34;;;;;;;4.70;2.20;;;;;;;;;;6316534;22;20165;-90
2022/03/22 13:33:41;;;;;;;6.95;1.73;;;;;;;;;;6314812;22;20200;-90
2022/03/22 13:36:48;;;;;;;3.50;1.80;;;;;;;;;;6298879;22;20181;-88
2022/03/22 13:39:55;;;;;;;2.35;1.50;;;;;;;;;;6322231;22;20173;-88
2022/03/22 13:43:01;;;;;;;4.22;2.05;;;;;;;;;;6299922;22;20169;-90
2022/03/22 13:46:07;;;;;;;10.32;2.53;;;;;;;;;;6318677;22;20522;-89
2022/03/22 13:49:12;;;;;;;7.00;1.77;;;;;;;;;;6317608;22;20183;-90
2022/03/22 13:52:25;;;;;;;4.30;1.80;;;;;;;;;;6300171;22;20287;-89
2022/03/22 13:55:30;;;;;;;4.20;2.30;;;;;;;;;;6318028;22;20177;-88
2022/03/22 13:58:37;;;;;;;5.25;2.90;;;;;;;;;;6302827;22;20184;-88
2022/03/22 14:01:54;;;;;;;6.13;2.10;;;;;;;;;;6320031;22;20167;-91
2022/03/22 14:05:00;;;;;;;4.90;1.55;;;;;;;;;;6319495;22;20169;-90
2022/03/22 14:08:08;;;;;;;1.55;1.10;;;;;;;;;;6302675;22;20161;-88
2022/03/22 14:11:13;;;;;;;6.25;1.98;;;;;;;;;;6300854;22;20183;-89
2022/03/22 14:14:19;;;;;;;2.63;1.40;;;;;;;;;;6302040;22;20173;-89
2022/03/22 14:17:26;;;;;;;5.15;1.40;;;;;;;;;;6318214;22;20184;-88
2022/03/22 14:20:32;;;;;;;2.67;1.42;;;;;;;;;;6321987;22;20212;-89
2022/03/22 14:23:39;;;;;;;5.90;1.70;;;;;;;;;;6321097;22;20177;-87
2022/03/22 14:26:45;;;;;;;5.70;1.55;;;;;;;;;;6316842;22;20192;-86
2022/03/22 14:29:52;;;;;;;4.07;1.80;;;;;;;;;;6321660;22;20188;-86
2022/03/22 14:32:58;;;;;;;2.35;1.40;;;;;;;;;;6301038;22;20169;-88
2022/03/22 14:36:03;;;;;;;3.35;1.40;;;;;;;;;;6321149;22;20184;-90
2022/03/22 14:39:10;;;;;;;4.55;2.15;;;;;;;;;;6317313;22;20247;-88
2022/03/22 14:42:15;;;;;;;5.38;1.50;;;;;;;;;;6299218;22;20165;-90
2022/03/22 14:45:20;;;;;;;4.80;2.40;;;;;;;;;;6316250;22;20173;-89
2022/03/22 14:48:25;;;;;;;2.72;1.20;;;;;;;;;;6299340;22;20493;-89
2022/03/22 14:55:13;;;;;;;5.30;1.50;;;;;;;;;;6316085;22;20185;-87
2022/03/22 15:01:41;;;;;;;4.00;1.95;;;;;;;;;;6300734;22;20178;-90
2022/03/22 15:04:48;;;;;;;4.30;1.60;;;;;;;;;;6319354;22;20177;-89
2022/03/22 15:07:54;;;;;;;7.28;2.53;;;;;;;;;;6319109;22;20181;-89
2022/03/22 15:11:01;;;;;;;3.95;2.00;;;;;;;;;;6318925;22;20169;-89
2022/03/22 15:17:26;;;;;;;3.40;1.45;;;;;;;;;;6300539;22;20172;-87
2022/03/22 15:20:32;;;;;;;3.78;1.50;;;;;;;;;;6317018;22;20168;-88
2022/03/22 15:23:37;;;;;;;3.45;1.80;;;;;;;;;;6313437;22;20173;-89
2022/03/22 15:26:44;;;;;;;6.55;2.33;;;;;;;;;;6296202;22;20180;-87
2022/03/22 15:29:49;;;;;;;4.28;1.63;;;;;;;;;;6316477;22;20165;-87
2022/03/22 15:32:57;;;;;;;6.25;1.50;;;;;;;;;;6299908;22;20211;-87
2022/03/22 15:36:09;;;;;;;3.83;1.70;;;;;;;;;;6319051;22;20727;-89
2022/03/22 15:39:15;;;;;;;2.58;1.80;;;;;;;;;;6299654;22;20173;-89
2022/03/22 15:42:21;;;;;;;3.53;1.67;;;;;;;;;;6315372;22;20268;-89
2022/03/22 15:45:27;;;;;;;6.45;2.38;;;;;;;;;;6319022;22;20168;-89
2022/03/22 15:48:32;;;;;;;3.83;1.60;;;;;;;;;;6300458;22;20207;-86
2022/03/22 15:51:37;;;;;;;2.35;1.65;;;;;;;;;;6316747;22;20212;-86
2022/03/22 15:54:43;;;;;;;3.40;1.52;;;;;;;;;;6315847;22;20243;-89
2022/03/22 15:57:50;;;;;;;3.95;1.60;;;;;;;;;;6315868;22;20477;-89
2022/03/22 16:00:57;;;;;;;2.90;1.52;;;;;;;;;;6313757;22;20168;-88
2022/03/22 16:04:01;;;;;;;5.72;1.92;;;;;;;;;;6299255;22;20169;-88
2022/03/22 16:07:07;;;;;;;5.72;1.70;;;;;;;;;;6318594;22;20329;-88
2022/03/22 16:10:11;;;;;;;3.67;2.25;;;;;;;;;;6319958;22;20173;-89
2022/03/22 16:13:18;;;;;;;9.07;1.92;;;;;;;;;;6317354;22;20168;-89
2022/03/22 16:16:23;;;;;;;5.15;1.95;;;;;;;;;;6313711;22;20165;-88
2022/03/22 16:19:28;;;;;;;5.03;2.10;;;;;;;;;;6316188;22;20239;-87
2022/03/22 16:22:34;;;;;;;6.57;2.20;;;;;;;;;;6297865;22;20168;-89
2022/03/22 16:25:38;;;;;;;3.63;1.95;;;;;;;;;;6314163;22;20241;-89
2022/03/22 16:28:47;;;;;;;9.55;5.22;;;;;;;;;;6296680;22;20608;-88
2022/03/22 16:31:53;;;;;;;3.88;2.60;;;;;;;;;;6313465;22;20247;-89
2022/03/22 16:38:33;;;;;;;4.80;2.60;;;;;;;;;;6287490;22;20208;-86
2022/03/22 16:41:38;;;;;;;5.70;2.80;;;;;;;;;;6314926;22;20199;-90
2022/03/22 16:44:47;;;;;;;6.97;3.28;;;;;;;;;;6297841;22;20304;-88
2022/03/22 16:47:52;;;;;;;6.53;2.83;;;;;;;;;;6315979;22;20196;-88
2022/03/22 16:50:57;;;;;;;6.20;2.88;;;;;;;;;;6316075;22;20195;-88
2022/03/22 16:54:02;;;;;;;6.18;3.20;;;;;;;;;;6314372;22;20173;-88
2022/03/22 16:57:07;;;;;;;5.30;2.50;;;;;;;;;;6299000;22;20620;-90
2022/03/22 17:00:15;;;;;;;8.98;3.05;;;;;;;;;;6314675;22;20164;-89
2022/03/22 17:03:20;;;;;;;5.20;3.15;;;;;;;;;;6299404;22;20169;-88
2022/03/22 17:06:29;;;;;;;9.30;2.75;;;;;;;;;;6296574;22;20518;-88
2022/03/22 17:09:36;;;;;;;6.32;2.92;;;;;;;;;;6317077;22;20169;-84
2022/03/22 17:12:41;;;;;;;7.30;2.60;;;;;;;;;;6318875;22;20168;-87
2022/03/22 17:15:50;;;;;;;4.90;2.30;;;;;;;;;;6315991;22;20617;-88
2022/03/22 17:18:55;;;;;;;7.53;2.83;;;;;;;;;;6318115;22;20484;-89
2022/03/22 17:22:02;;;;;;;8.07;2.40;;;;;;;;;;6300344;22;20586;-85
2022/03/22 17:25:07;;;;;;;10.35;2.47;;;;;;;;;;6319805;22;20603;-84
2022/03/22 17:28:13;;;;;;;6.32;2.90;;;;;;;;;;6325614;22;20243;-86
2022/03/22 17:31:24;;;;;;;10.57;4.18;;;;;;;;;;6323531;22;20165;-87
2022/03/22 17:34:30;;;;;;;9.95;3.92;;;;;;;;;;6322209;22;20243;-87
2022/03/22 17:37:35;;;;;;;10.57;3.90;;;;;;;;;;6300720;22;20169;-88
2022/03/22 17:40:41;;;;;;;12.90;3.88;;;;;;;;;;6318950;22;20174;-88
2022/03/22 17:43:46;;;;;;;8.73;4.00;;;;;;;;;;6299324;22;20225;-88
2022/03/22 17:46:53;;;;;;;10.90;3.30;;;;;;;;;;6318992;22;20251;-89
2022/03/22 17:49:58;;;;;;;5.60;2.75;;;;;;;;;;6299911;22;20269;-87
2022/03/22 17:53:03;;;;;;;9.85;3.17;;;;;;;;;;6317906;22;20668;-88
2022/03/22 17:56:09;;;;;;;15.30;3.03;;;;;;;;;;6319976;22;20224;-88
2022/03/22 17:59:13;;;;;;;8.60;3.80;;;;;;;;;;6299951;22;20164;-87
2022/03/22 18:02:19;;;;;;;16.25;3.45;;;;;;;;;;6319858;22;20231;-89
2022/03/22 18:05:25;;;;;;;7.80;4.05;;;;;;;;;;6302179;22;20173;-88
2022/03/22 18:08:31;;;;;;;8.88;4.22;;;;;;;;;;6320935;22;20161;-88
2022/03/22 18:11:50;;;;;;;13.68;4.07;;;;;;;;;;6320738;22;20165;-87
2022/03/22 18:14:56;;;;;;;9.57;4.70;;;;;;;;;;6318844;22;20604;-89
2022/03/22 18:18:04;;;;;;;15.40;5.88;;;;;;;;;;6315448;22;20168;-88
2022/03/22 18:21:10;;;;;;;8.27;4.55;;;;;;;;;;6315715;22;20165;-87
2022/03/22 18:24:16;;;;;;;11.93;4.47;;;;;;;;;;6299583;22;20168;-87
2022/03/22 18:27:21;;;;;;;13.43;6.45;;;;;;;;;;6315802;22;20211;-88
2022/03/22 18:30:27;;;;;;;18.40;7.57;;;;;;;;;;6316830;22;20168;-87
2022/03/22 18:33:34;;;;;;;15.52;7.68;;;;;;;;;;6317393;22;20184;-88
2022/03/22 18:36:40;;;;;;;18.67;6.63;;;;;;;;;;6296432;22;20160;-88
2022/03/22 18:39:45;;;;;;;15.50;6.32;;;;;;;;;;6316097;22;20212;-87
2022/03/22 18:42:50;;;;;;;17.13;6.30;;;;;;;;;;6297587;22;20177;-87
2022/03/22 18:45:55;;;;;;;16.42;7.15;;;;;;;;;;6299376;22;20504;-88
2022/03/22 18:49:02;;;;;;;14.40;6.07;;;;;;;;;;6315242;22;20189;-88
2022/03/22 18:52:09;;;;;;;18.92;8.13;;;;;;;;;;6298079;22;20223;-88
2022/03/22 18:55:18;;;;;;;13.35;5.30;;;;;;;;;;6313451;22;20224;-88
2022/03/22 18:58:24;;;;;;;11.32;4.97;;;;;;;;;;6312872;22;20165;-87
2022/03/22 19:01:30;;;;;;;19.05;6.90;;;;;;;;;;6312364;22;20169;-87
2022/03/22 19:04:36;;;;;;;16.52;6.65;;;;;;;;;;6315012;22;20296;-86
2022/03/22 19:07:41;;;;;;;11.90;6.57;;;;;;;;;;6314749;22;20644;-87
2022/03/22 19:10:46;;;;;;;19.50;8.07;;;;;;;;;;6297322;22;20617;-86
2022/03/22 19:13:51;;;;;;;21.92;7.65;;;;;;;;;;6317151;22;20233;-87
2022/03/22 19:20:21;;;;;;;17.20;8.10;;;;;;;;;;6315170;22;20161;-86
2022/03/22 19:23:26;;;;;;;24.95;9.57;;;;;;;;;;6315484;22;20173;-87
2022/03/22 19:26:33;;;;;;;21.63;8.50;;;;;;;;;;6313634;22;20251;-87
2022/03/22 19:29:38;;;;;;;21.05;7.60;;;;;;;;;;6296557;22;20157;-87
2022/03/22 19:32:58;;;;;;;14.93;6.85;;;;;;;;;;6314512;22;20219;-88
2022/03/22 19:36:04;;;;;;;13.13;6.88;;;;;;;;;;6312384;22;20235;-87